createdAt,value
2022-08-17T00:01:00.640Z,93510.46
2022-08-17T00:02:23.104Z,93507.99
2022-08-17T00:03:29.572Z,93507.52
2022-08-17T00:04:33.417Z,93507.36
2022-08-17T00:05:41.594Z,93507.93
2022-08-17T00:06:45.894Z,93508.83
2022-08-17T00:07:51.959Z,93504.72
2022-08-17T00:08:58.673Z,93508.44
2022-08-17T00:10:02.205Z,93507.40
2022-08-17T00:11:08.885Z,93505.77
2022-08-17T00:12:41.997Z,93506.19
2022-08-17T00:13:41.767Z,93508.51
2022-08-17T00:14:46.401Z,93501.68
2022-08-17T00:15:50.177Z,93511.25
2022-08-17T00:16:57.069Z,93513.18
2022-08-17T00:18:02.795Z,93512.73
2022-08-17T00:19:09.516Z,93512.30
2022-08-17T00:20:13.661Z,93515.04
2022-08-17T00:21:25.200Z,93513.38
2022-08-17T00:22:35.027Z,93510.34
2022-08-17T00:23:44.322Z,93507.98
2022-08-17T00:24:53.101Z,93511.52
2022-08-17T00:25:56.222Z,93507.36
2022-08-17T00:26:59.616Z,93506.43
2022-08-17T00:28:03.073Z,93505.19
2022-08-17T00:29:07.809Z,93508.00
2022-08-17T00:30:15.301Z,93506.82
2022-08-17T00:31:18.907Z,93501.61
2022-08-17T00:33:10.957Z,93501.25
2022-08-17T00:33:45.749Z,93504.88
2022-08-17T00:34:48.937Z,93505.52
2022-08-17T00:35:55.733Z,93508.20
2022-08-17T00:36:58.881Z,93509.71
2022-08-17T00:38:02.075Z,93509.67
2022-08-17T00:39:05.764Z,93508.39
2022-08-17T00:40:12.734Z,93507.02
2022-08-17T00:41:19.787Z,93504.23
2022-08-17T00:42:26.416Z,93502.77
2022-08-17T00:43:41.136Z,93504.01
2022-08-17T00:44:46.594Z,93501.30
2022-08-17T00:45:49.869Z,93501.00
2022-08-17T00:46:57.545Z,93503.96
2022-08-17T00:48:01.013Z,93503.69
2022-08-17T00:49:06.506Z,93502.10
2022-08-17T00:50:12.607Z,93504.86
2022-08-17T00:51:27.697Z,93499.59
2022-08-17T00:52:36.323Z,93500.83
2022-08-17T00:53:43.927Z,93498.73
2022-08-17T00:54:52.553Z,93496.30
2022-08-17T00:55:56.049Z,93495.66
2022-08-17T00:57:04.987Z,93496.35
2022-08-17T00:58:08.609Z,93495.94
2022-08-17T00:59:15.865Z,93496.93
2022-08-17T01:00:27.366Z,93494.63
2022-08-17T01:01:32.241Z,93498.05
2022-08-17T01:02:43.005Z,93499.02
2022-08-17T01:03:46.458Z,93496.05
2022-08-17T01:04:53.112Z,93498.23
2022-08-17T01:06:00.657Z,93498.35
2022-08-17T01:07:06.440Z,93496.19
2022-08-17T01:08:16.165Z,93495.94
2022-08-17T01:09:20.062Z,93494.09
2022-08-17T01:10:58.557Z,93496.10
2022-08-17T01:11:55.016Z,93496.86
2022-08-17T01:13:00.325Z,93494.23
2022-08-17T01:14:04.291Z,93492.50
2022-08-17T01:15:08.045Z,93493.87
2022-08-17T01:16:16.097Z,93492.23
2022-08-17T01:17:19.522Z,93488.39
2022-08-17T01:18:23.190Z,93487.09
2022-08-17T01:19:30.641Z,93486.09
2022-08-17T01:20:47.531Z,93488.16
2022-08-17T01:21:51.849Z,93487.38
2022-08-17T01:22:55.221Z,93486.97
2022-08-17T01:23:59.727Z,93489.36
2022-08-17T01:25:08.283Z,93490.44
2022-08-17T01:26:11.592Z,93492.98
2022-08-17T01:27:18.321Z,93493.20
2022-08-17T01:28:52.372Z,93498.18
2022-08-17T01:29:58.145Z,93499.75
2022-08-17T01:31:06.565Z,93500.11
2022-08-17T01:32:10.435Z,93500.92
2022-08-17T01:33:13.905Z,93501.61
2022-08-17T01:34:25.111Z,93503.60
2022-08-17T01:35:57.617Z,93509.10
2022-08-17T01:37:23.798Z,93510.11
2022-08-17T01:39:10.167Z,93510.83
2022-08-17T01:40:43.361Z,93509.09
2022-08-17T01:42:03.740Z,93505.30
2022-08-17T01:43:50.928Z,93508.12
2022-08-17T01:45:15.310Z,93507.02
2022-08-17T01:46:28.883Z,93509.20
2022-08-17T01:47:32.660Z,93510.80
2022-08-17T01:48:39.471Z,93514.50
2022-08-17T01:49:42.600Z,93510.98
2022-08-17T01:50:48.101Z,93515.45
2022-08-17T01:51:51.969Z,93512.23
2022-08-17T01:53:05.578Z,93511.61
2022-08-17T01:54:15.280Z,93510.98
2022-08-17T01:55:27.320Z,93513.77
2022-08-17T01:56:33.015Z,93512.40
2022-08-17T01:57:36.706Z,93512.83
2022-08-17T01:58:44.191Z,93513.20
2022-08-17T01:59:50.130Z,93511.34
2022-08-17T02:01:00.939Z,93511.24
2022-08-17T02:02:07.543Z,93514.38
2022-08-17T02:03:10.981Z,93512.85
2022-08-17T02:04:15.039Z,93510.27
2022-08-17T02:05:18.636Z,93509.50
2022-08-17T02:06:27.569Z,93514.19
2022-08-17T02:07:31.334Z,93510.55
2022-08-17T02:08:38.998Z,93513.61
2022-08-17T02:09:59.480Z,93517.20
2022-08-17T02:11:11.159Z,93514.73
2022-08-17T02:12:37.900Z,93512.50
2022-08-17T02:13:38.313Z,93513.73
2022-08-17T02:14:41.777Z,93512.31
2022-08-17T02:15:45.391Z,93514.73
2022-08-17T02:16:48.589Z,93515.21
2022-08-17T02:17:54.738Z,93512.46
2022-08-17T02:18:58.025Z,93512.37
2022-08-17T02:20:01.911Z,93512.96
2022-08-17T02:21:06.029Z,93514.45
2022-08-17T02:22:09.471Z,93510.42
2022-08-17T02:23:15.887Z,93511.04
2022-08-17T02:24:59.440Z,93512.14
2022-08-17T02:25:59.255Z,93512.10
2022-08-17T02:27:02.439Z,93510.30
2022-08-17T02:28:05.827Z,93508.38
2022-08-17T02:29:09.158Z,93511.55
2022-08-17T02:30:59.851Z,93508.23
2022-08-17T02:31:38.106Z,93514.15
2022-08-17T02:32:41.535Z,93509.02
2022-08-17T02:33:44.630Z,93509.88
2022-08-17T02:35:01.349Z,93510.95
2022-08-17T02:36:06.782Z,93509.31
2022-08-17T02:37:10.058Z,93507.11
2022-08-17T02:38:13.517Z,93508.29
2022-08-17T02:39:16.718Z,93503.90
2022-08-17T02:40:36.232Z,93503.54
2022-08-17T02:41:41.098Z,93500.56
2022-08-17T02:42:45.713Z,93500.88
2022-08-17T02:43:49.116Z,93497.66
2022-08-17T02:44:52.347Z,93498.77
2022-08-17T02:45:55.783Z,93496.92
2022-08-17T02:46:59.069Z,93494.15
2022-08-17T02:48:03.316Z,93493.83
2022-08-17T02:49:06.572Z,93493.05
2022-08-17T02:50:12.003Z,93493.16
2022-08-17T02:51:15.551Z,93494.54
2022-08-17T02:52:43.055Z,93493.38
2022-08-17T02:53:45.015Z,93497.14
2022-08-17T02:54:48.515Z,93498.88
2022-08-17T02:55:52.013Z,93497.87
2022-08-17T02:56:55.819Z,93493.80
2022-08-17T02:58:04.036Z,93491.21
2022-08-17T02:59:07.366Z,93491.74
2022-08-17T03:00:14.586Z,93492.13
2022-08-17T03:01:22.389Z,93492.34
2022-08-17T03:02:25.842Z,93493.18
2022-08-17T03:03:29.041Z,93490.97
2022-08-17T03:04:34.887Z,93487.38
2022-08-17T03:05:39.908Z,93487.80
2022-08-17T03:06:43.098Z,93490.31
2022-08-17T03:07:46.261Z,93494.35
2022-08-17T03:08:49.632Z,93491.34
2022-08-17T03:09:54.116Z,93489.50
2022-08-17T03:10:57.583Z,93486.18
2022-08-17T03:12:09.783Z,93487.05
2022-08-17T03:13:16.340Z,93479.85
2022-08-17T03:14:28.533Z,93487.45
2022-08-17T03:15:34.173Z,93489.21
2022-08-17T03:16:37.420Z,93488.90
2022-08-17T03:17:42.835Z,93488.74
2022-08-17T03:18:46.458Z,93491.14
2022-08-17T03:19:49.979Z,93493.73
2022-08-17T03:20:59.756Z,93491.11
2022-08-17T03:22:35.327Z,93490.80
2022-08-17T03:23:29.634Z,93489.24
2022-08-17T03:24:33.820Z,93485.14
2022-08-17T03:25:43.363Z,93488.30
2022-08-17T03:26:47.467Z,93489.90
2022-08-17T03:27:52.159Z,93486.91
2022-08-17T03:28:55.441Z,93485.28
2022-08-17T03:29:58.935Z,93486.46
2022-08-17T03:31:03.209Z,93488.52
2022-08-17T03:32:13.975Z,93488.23
2022-08-17T03:33:17.663Z,93493.03
2022-08-17T03:34:20.820Z,93494.05
2022-08-17T03:35:26.856Z,93492.84
2022-08-17T03:36:30.052Z,93496.53
2022-08-17T03:37:39.448Z,93491.94
2022-08-17T03:38:42.575Z,93493.85
2022-08-17T03:39:48.326Z,93494.64
2022-08-17T03:40:57.135Z,93493.27
2022-08-17T03:42:31.929Z,93491.70
2022-08-17T03:43:36.019Z,93491.41
2022-08-17T03:44:39.736Z,93493.17
2022-08-17T03:46:02.166Z,93490.90
2022-08-17T03:47:24.437Z,93490.05
2022-08-17T03:48:46.203Z,93486.73
2022-08-17T03:50:08.262Z,93490.66
2022-08-17T03:51:41.790Z,93485.30
2022-08-17T03:53:09.497Z,93491.98
2022-08-17T03:54:31.165Z,93493.20
2022-08-17T03:55:53.178Z,93489.81
2022-08-17T03:57:09.046Z,93485.89
2022-08-17T03:58:12.247Z,93486.52
2022-08-17T03:59:22.248Z,93488.73
2022-08-17T04:00:27.883Z,93485.30
2022-08-17T04:01:31.273Z,93489.31
2022-08-17T04:02:35.007Z,93486.50
2022-08-17T04:03:38.132Z,93483.96
2022-08-17T04:04:41.314Z,93484.32
2022-08-17T04:05:44.915Z,93488.75
2022-08-17T04:06:48.571Z,93486.10
2022-08-17T04:07:52.011Z,93488.58
2022-08-17T04:08:59.199Z,93490.05
2022-08-17T04:10:05.103Z,93490.33
2022-08-17T04:11:08.438Z,93492.06
2022-08-17T04:12:11.836Z,93493.61
2022-08-17T04:13:15.128Z,93492.44
2022-08-17T04:14:27.471Z,93492.86
2022-08-17T04:15:34.172Z,93492.54
2022-08-17T04:16:37.583Z,93493.34
2022-08-17T04:17:41.646Z,93493.27
2022-08-17T04:18:45.058Z,93495.13
2022-08-17T04:19:48.251Z,93496.81
2022-08-17T04:20:51.576Z,93499.41
2022-08-17T04:21:54.877Z,93494.70
2022-08-17T04:23:32.955Z,93494.81
2022-08-17T04:24:38.933Z,93496.11
2022-08-17T04:25:44.997Z,93495.91
2022-08-17T04:26:52.547Z,93492.39
2022-08-17T04:28:02.155Z,93493.70
2022-08-17T04:29:05.609Z,93492.23
2022-08-17T04:30:09.786Z,93493.58
2022-08-17T04:31:14.345Z,93487.72
2022-08-17T04:33:00.608Z,93489.64
2022-08-17T04:33:48.496Z,93487.42
2022-08-17T04:34:51.638Z,93484.27
2022-08-17T04:35:58.625Z,93486.53
2022-08-17T04:37:04.006Z,93485.10
2022-08-17T04:38:10.428Z,93481.62
2022-08-17T04:39:13.614Z,93469.52
2022-08-17T04:40:37.221Z,93481.77
2022-08-17T04:42:01.090Z,93478.71
2022-08-17T04:43:19.581Z,93485.98
2022-08-17T04:44:28.365Z,93486.73
2022-08-17T04:45:55.579Z,93486.17
2022-08-17T04:47:00.518Z,93488.16
2022-08-17T04:48:07.388Z,93487.06
2022-08-17T04:49:12.011Z,93490.95
2022-08-17T04:50:15.415Z,93489.13
2022-08-17T04:51:54.510Z,93489.45
2022-08-17T04:52:59.818Z,93490.80
2022-08-17T04:54:07.288Z,93492.56
2022-08-17T04:55:11.910Z,93491.83
2022-08-17T04:56:19.027Z,93493.36
2022-08-17T04:57:22.347Z,93491.27
2022-08-17T04:58:25.545Z,93493.84
2022-08-17T04:59:28.656Z,93490.28
2022-08-17T05:00:36.179Z,93491.11
2022-08-17T05:01:47.514Z,93488.78
2022-08-17T05:02:55.934Z,93488.09
2022-08-17T05:04:21.466Z,93487.71
2022-08-17T05:05:33.957Z,93479.80
2022-08-17T05:06:37.613Z,93493.16
2022-08-17T05:07:40.896Z,93496.09
2022-08-17T05:08:44.224Z,93497.02
2022-08-17T05:09:47.497Z,93499.23
2022-08-17T05:10:51.039Z,93498.69
2022-08-17T05:11:55.292Z,93494.33
2022-08-17T05:13:08.630Z,93501.58
2022-08-17T05:14:13.703Z,93498.84
2022-08-17T05:15:16.940Z,93501.42
2022-08-17T05:16:24.546Z,93499.32
2022-08-17T05:17:27.836Z,93499.73
2022-08-17T05:18:32.293Z,93499.89
2022-08-17T05:19:35.756Z,93499.70
2022-08-17T05:20:41.714Z,93502.17
2022-08-17T05:21:45.105Z,93501.95
2022-08-17T05:23:10.810Z,93498.19
2022-08-17T05:24:40.795Z,93494.95
2022-08-17T05:25:45.655Z,93497.13
2022-08-17T05:26:51.083Z,93495.96
2022-08-17T05:27:56.052Z,93497.92
2022-08-17T05:29:02.438Z,93501.23
2022-08-17T05:30:06.980Z,93500.87
2022-08-17T05:31:11.300Z,93498.03
2022-08-17T05:32:39.571Z,93502.16
2022-08-17T05:33:44.544Z,93502.92
2022-08-17T05:34:49.685Z,93500.55
2022-08-17T05:35:56.297Z,93500.69
2022-08-17T05:37:02.462Z,93499.84
2022-08-17T05:38:14.469Z,93499.68
2022-08-17T05:39:17.601Z,93499.31
2022-08-17T05:40:22.214Z,93495.98
2022-08-17T05:41:25.868Z,93492.38
2022-08-17T05:42:29.297Z,93493.77
2022-08-17T05:43:38.575Z,93493.30
2022-08-17T05:44:41.832Z,93496.20
2022-08-17T05:45:55.157Z,93499.05
2022-08-17T05:47:00.181Z,93501.95
2022-08-17T05:48:03.945Z,93494.15
2022-08-17T05:49:11.238Z,93499.26
2022-08-17T05:50:26.975Z,93501.47
2022-08-17T05:52:18.837Z,93499.98
2022-08-17T05:54:01.042Z,93499.77
2022-08-17T05:55:21.379Z,93500.70
2022-08-17T05:57:04.552Z,93503.96
2022-08-17T05:58:35.480Z,93501.77
2022-08-17T05:59:58.313Z,93497.77
2022-08-17T06:01:12.753Z,93498.99
2022-08-17T06:02:48.037Z,93497.11
2022-08-17T06:04:23.383Z,93495.64
2022-08-17T06:05:29.795Z,93495.34
2022-08-17T06:06:40.024Z,93494.20
2022-08-17T06:07:54.699Z,93495.05
2022-08-17T06:09:33.694Z,93493.15
2022-08-17T06:10:48.024Z,93489.75
2022-08-17T06:12:03.943Z,93491.04
2022-08-17T06:13:39.129Z,93489.34
2022-08-17T06:14:52.269Z,93491.41
2022-08-17T06:16:28.300Z,93477.30
2022-08-17T06:17:37.854Z,93491.45
2022-08-17T06:18:58.083Z,93489.31
2022-08-17T06:20:10.698Z,93492.63
2022-08-17T06:21:18.444Z,93490.66
2022-08-17T06:22:33.671Z,93491.45
2022-08-17T06:23:41.928Z,93496.34
2022-08-17T06:25:01.271Z,93499.62
2022-08-17T06:26:41.059Z,93501.59
2022-08-17T06:27:55.904Z,93498.77
2022-08-17T06:29:03.746Z,93498.73
2022-08-17T06:30:25.101Z,93503.32
2022-08-17T06:31:39.227Z,93503.17
2022-08-17T06:32:45.469Z,93503.05
2022-08-17T06:33:49.571Z,93503.41
2022-08-17T06:34:53.877Z,93502.62
2022-08-17T06:36:37.725Z,93506.17
2022-08-17T06:37:59.675Z,93503.96
2022-08-17T06:39:02.859Z,93504.54
2022-08-17T06:40:20.616Z,93507.09
2022-08-17T06:41:31.712Z,93507.38
2022-08-17T06:43:17.072Z,93505.16
2022-08-17T06:44:43.421Z,93504.39
2022-08-17T06:46:07.967Z,93506.48
2022-08-17T06:47:28.717Z,93501.44
2022-08-17T06:48:43.607Z,93498.80
2022-08-17T06:49:55.532Z,93487.40
2022-08-17T06:51:03.962Z,93504.20
2022-08-17T06:52:45.777Z,93501.82
2022-08-17T06:53:59.996Z,93502.00
2022-08-17T06:55:18.001Z,93504.14
2022-08-17T06:56:54.183Z,93501.95
2022-08-17T06:58:15.615Z,93500.41
2022-08-17T06:59:36.271Z,93496.52
2022-08-17T07:00:58.725Z,93492.35
2022-08-17T07:02:07.231Z,93491.08
2022-08-17T07:03:21.292Z,93488.98
2022-08-17T07:04:30.333Z,93488.16
2022-08-17T07:05:53.968Z,93490.00
2022-08-17T07:07:27.837Z,93492.75
2022-08-17T07:09:06.991Z,93492.63
2022-08-17T07:10:11.566Z,93495.16
2022-08-17T07:11:22.542Z,93494.80
2022-08-17T07:12:31.636Z,93499.73
2022-08-17T07:14:03.059Z,93493.87
2022-08-17T07:15:23.392Z,93492.89
2022-08-17T07:16:41.322Z,93491.43
2022-08-17T07:17:48.412Z,93490.79
2022-08-17T07:18:53.529Z,93488.48
2022-08-17T07:20:10.438Z,93489.91
2022-08-17T07:21:41.003Z,93488.74
2022-08-17T07:22:57.238Z,93493.19
2022-08-17T07:24:47.445Z,93495.91
2022-08-17T07:25:50.894Z,93495.06
2022-08-17T07:27:17.691Z,93500.09
2022-08-17T07:28:23.431Z,93498.41
2022-08-17T07:29:27.387Z,93497.73
2022-08-17T07:30:46.822Z,93492.81
2022-08-17T07:31:51.158Z,93492.27
2022-08-17T07:33:04.056Z,93491.77
2022-08-17T07:34:15.076Z,93492.67
2022-08-17T07:35:31.217Z,93491.63
2022-08-17T07:36:42.803Z,93496.52
2022-08-17T07:37:54.395Z,93495.57
2022-08-17T07:38:58.483Z,93491.27
2022-08-17T07:40:22.580Z,93492.00
2022-08-17T07:41:26.856Z,93494.92
2022-08-17T07:43:08.609Z,93491.59
2022-08-17T07:44:18.894Z,93488.54
2022-08-17T07:45:40.727Z,93489.94
2022-08-17T07:47:13.700Z,93488.32
2022-08-17T07:48:25.317Z,93487.96
2022-08-17T07:49:31.695Z,93482.84
2022-08-17T07:50:34.959Z,93491.14
2022-08-17T07:51:43.707Z,93496.40
2022-08-17T07:52:50.552Z,93496.12
2022-08-17T07:54:13.561Z,93494.67
2022-08-17T07:55:33.121Z,93488.98
2022-08-17T07:57:03.742Z,93491.35
2022-08-17T07:58:06.853Z,93490.52
2022-08-17T07:59:14.633Z,93493.00
2022-08-17T08:00:29.207Z,93492.36
2022-08-17T08:01:41.579Z,93490.38
2022-08-17T08:02:57.931Z,93491.80
2022-08-17T08:04:01.306Z,93492.94
2022-08-17T08:05:13.457Z,93490.84
2022-08-17T08:06:26.629Z,93482.42
2022-08-17T08:07:35.851Z,93493.39
2022-08-17T08:08:43.971Z,93495.61
2022-08-17T08:10:07.066Z,93493.14
2022-08-17T08:11:15.793Z,93500.45
2022-08-17T08:12:37.453Z,93501.94
2022-08-17T08:13:44.015Z,93498.60
2022-08-17T08:15:07.994Z,93499.89
2022-08-17T08:16:29.398Z,93501.66
2022-08-17T08:17:46.404Z,93503.45
2022-08-17T08:18:57.361Z,93503.29
2022-08-17T08:20:37.874Z,93500.40
2022-08-17T08:21:34.551Z,93500.75
2022-08-17T08:23:00.752Z,93500.09
2022-08-17T08:24:30.176Z,93502.15
2022-08-17T08:26:13.156Z,93501.46
2022-08-17T08:27:50.586Z,93498.55
2022-08-17T08:29:29.608Z,93501.30
2022-08-17T08:30:40.937Z,93498.61
2022-08-17T08:32:09.810Z,93501.20
2022-08-17T08:33:48.577Z,93499.77
2022-08-17T08:35:14.180Z,93497.55
2022-08-17T08:37:14.243Z,93494.55
2022-08-17T08:38:34.714Z,93493.69
2022-08-17T08:39:51.269Z,93488.23
2022-08-17T08:41:22.665Z,93489.27
2022-08-17T08:42:38.656Z,93488.73
2022-08-17T08:44:19.773Z,93487.75
2022-08-17T08:45:34.246Z,93485.48
2022-08-17T08:46:44.296Z,93484.14
2022-08-17T08:48:06.025Z,93488.08
2022-08-17T08:50:09.500Z,93485.46
2022-08-17T08:51:29.456Z,93488.93
2022-08-17T08:52:52.137Z,93480.21
2022-08-17T08:54:27.034Z,93492.27
2022-08-17T08:55:50.877Z,93495.52
2022-08-17T08:57:25.642Z,93493.36
2022-08-17T08:59:01.847Z,93491.40
2022-08-17T09:00:13.414Z,93493.06
2022-08-17T09:01:42.542Z,93495.53
2022-08-17T09:03:06.921Z,93494.98
2022-08-17T09:04:25.409Z,93494.20
2022-08-17T09:06:00.587Z,93497.02
2022-08-17T09:07:26.088Z,93496.70
2022-08-17T09:08:32.550Z,93500.36
2022-08-17T09:09:55.143Z,93500.30
2022-08-17T09:11:23.339Z,93498.61
2022-08-17T09:12:57.953Z,93501.11
2022-08-17T09:14:21.332Z,93499.73
2022-08-17T09:15:30.130Z,93497.95
2022-08-17T09:17:03.085Z,93494.27
2022-08-17T09:18:59.844Z,93493.98
2022-08-17T09:20:02.543Z,93500.35
2022-08-17T09:21:27.313Z,93495.27
2022-08-17T09:22:56.922Z,93497.76
2022-08-17T09:24:21.046Z,93504.21
2022-08-17T09:25:31.727Z,93495.36
2022-08-17T09:26:39.680Z,93500.33
2022-08-17T09:27:53.838Z,93496.20
2022-08-17T09:29:05.955Z,93492.72
2022-08-17T09:30:12.336Z,93494.98
2022-08-17T09:31:21.803Z,93489.60
2022-08-17T09:32:33.967Z,93488.58
2022-08-17T09:33:48.719Z,93490.54
2022-08-17T09:34:56.321Z,93487.95
2022-08-17T09:36:41.150Z,93487.50
2022-08-17T09:38:18.418Z,93488.59
2022-08-17T09:39:42.207Z,93487.96
2022-08-17T09:41:06.871Z,93490.30
2022-08-17T09:42:30.110Z,93470.26
2022-08-17T09:43:59.441Z,93480.92
2022-08-17T09:45:08.522Z,93477.85
2022-08-17T09:46:29.011Z,93478.55
2022-08-17T09:47:45.594Z,93481.99
2022-08-17T09:48:59.034Z,93485.91
2022-08-17T09:50:11.782Z,93482.39
2022-08-17T09:51:36.470Z,93484.98
2022-08-17T09:52:42.222Z,93482.74
2022-08-17T09:53:45.409Z,93483.91
2022-08-17T09:54:51.869Z,93481.63
2022-08-17T09:56:16.677Z,93485.42
2022-08-17T09:57:37.806Z,93482.17
2022-08-17T09:59:14.102Z,93481.08
2022-08-17T10:00:25.433Z,93480.61
2022-08-17T10:01:40.294Z,93478.00
2022-08-17T10:02:57.189Z,93478.00
2022-08-17T10:04:09.587Z,93481.80
2022-08-17T10:05:33.579Z,93480.13
2022-08-17T10:07:03.693Z,93481.54
2022-08-17T10:08:32.332Z,93485.23
2022-08-17T10:09:48.681Z,93484.99
2022-08-17T10:10:59.203Z,93480.41
2022-08-17T10:12:29.921Z,93482.80
2022-08-17T10:13:53.108Z,93477.38
2022-08-17T10:15:15.831Z,93481.26
2022-08-17T10:16:38.581Z,93473.09
2022-08-17T10:18:04.270Z,93474.23
2022-08-17T10:19:20.831Z,93462.77
2022-08-17T10:20:30.428Z,93464.16
2022-08-17T10:22:00.653Z,93462.57
2022-08-17T10:23:36.363Z,93466.75
2022-08-17T10:25:22.732Z,93464.38
2022-08-17T10:26:54.176Z,93461.84
2022-08-17T10:28:10.696Z,93463.07
2022-08-17T10:29:46.207Z,93461.45
2022-08-17T10:31:23.464Z,93461.32
2022-08-17T10:32:39.970Z,93459.00
2022-08-17T10:34:25.463Z,93457.46
2022-08-17T10:35:41.210Z,93461.98
2022-08-17T10:36:54.887Z,93462.27
2022-08-17T10:38:17.031Z,93461.14
2022-08-17T10:39:33.268Z,93460.72
2022-08-17T10:40:52.294Z,93459.52
2022-08-17T10:42:03.382Z,93457.27
2022-08-17T10:43:41.968Z,93461.73
2022-08-17T10:44:57.587Z,93461.77
2022-08-17T10:46:40.479Z,93459.65
2022-08-17T10:48:22.922Z,93458.26
2022-08-17T10:49:29.861Z,93458.69
2022-08-17T10:50:46.507Z,93455.50
2022-08-17T10:51:59.474Z,93460.55
2022-08-17T10:53:02.902Z,93460.77
2022-08-17T10:54:27.292Z,93455.62
2022-08-17T10:55:30.581Z,93453.00
2022-08-17T10:56:47.005Z,93448.73
2022-08-17T10:57:51.003Z,93449.04
2022-08-17T10:58:59.040Z,93449.58
2022-08-17T11:00:28.725Z,93454.81
2022-08-17T11:01:34.979Z,93456.55
2022-08-17T11:02:52.317Z,93459.42
2022-08-17T11:04:01.521Z,93463.38
2022-08-17T11:05:22.609Z,93464.86
2022-08-17T11:06:32.519Z,93463.81
2022-08-17T11:07:35.786Z,93457.55
2022-08-17T11:09:05.634Z,93459.39
2022-08-17T11:10:27.800Z,93459.45
2022-08-17T11:12:02.973Z,93455.23
2022-08-17T11:13:28.151Z,93452.72
2022-08-17T11:14:55.653Z,93451.68
2022-08-17T11:16:32.864Z,93450.92
2022-08-17T11:18:10.858Z,93452.52
2022-08-17T11:19:51.095Z,93444.82
2022-08-17T11:21:21.248Z,93451.89
2022-08-17T11:23:02.056Z,93449.48
2022-08-17T11:24:16.846Z,93450.58
2022-08-17T11:25:31.903Z,93448.98
2022-08-17T11:26:37.653Z,93445.16
2022-08-17T11:27:41.673Z,93443.66
2022-08-17T11:28:52.477Z,93447.61
2022-08-17T11:30:09.802Z,93445.74
2022-08-17T11:31:40.204Z,93448.54
2022-08-17T11:32:54.554Z,93447.04
2022-08-17T11:34:06.732Z,93449.61
2022-08-17T11:35:12.958Z,93451.05
2022-08-17T11:36:21.930Z,93452.16
2022-08-17T11:37:44.461Z,93447.13
2022-08-17T11:39:29.890Z,93448.66
2022-08-17T11:41:01.311Z,93452.45
2022-08-17T11:42:39.977Z,93452.27
2022-08-17T11:44:03.860Z,93450.14
2022-08-17T11:45:32.164Z,93453.60
2022-08-17T11:47:17.033Z,93442.83
2022-08-17T11:48:44.498Z,93435.20
2022-08-17T11:50:12.583Z,93444.73
2022-08-17T11:51:38.126Z,93446.44
2022-08-17T11:52:46.089Z,93450.54
2022-08-17T11:53:50.260Z,93450.83
2022-08-17T11:54:53.396Z,93448.20
2022-08-17T11:55:56.618Z,93448.42
2022-08-17T11:57:21.649Z,93453.57
2022-08-17T11:58:30.895Z,93451.36
2022-08-17T11:59:34.773Z,93451.81
2022-08-17T12:00:46.898Z,93449.35
2022-08-17T12:01:50.006Z,93445.52
2022-08-17T12:03:34.329Z,93444.98
2022-08-17T12:04:37.572Z,93440.45
2022-08-17T12:05:41.297Z,93439.15
2022-08-17T12:06:49.042Z,93436.31
2022-08-17T12:08:04.467Z,93431.84
2022-08-17T12:09:31.274Z,93434.02
2022-08-17T12:10:37.052Z,93428.56
2022-08-17T12:12:18.645Z,93426.66
2022-08-17T12:13:30.448Z,93426.58
2022-08-17T12:15:09.419Z,93425.13
2022-08-17T12:16:18.042Z,93421.03
2022-08-17T12:17:41.272Z,93421.25
2022-08-17T12:19:02.539Z,93419.58
2022-08-17T12:20:11.829Z,93417.40
2022-08-17T12:21:36.348Z,93421.30
2022-08-17T12:22:53.846Z,93421.39
2022-08-17T12:24:23.794Z,93420.15
2022-08-17T12:25:56.997Z,93423.18
2022-08-17T12:27:04.836Z,93420.25
2022-08-17T12:28:29.523Z,93424.09
2022-08-17T12:29:35.624Z,93413.97
2022-08-17T12:30:50.453Z,93423.84
2022-08-17T12:31:55.966Z,93422.36
2022-08-17T12:32:59.222Z,93420.51
2022-08-17T12:34:05.173Z,93414.58
2022-08-17T12:35:39.183Z,93416.60
2022-08-17T12:36:42.707Z,93422.63
2022-08-17T12:37:49.171Z,93423.66
2022-08-17T12:39:13.018Z,93425.59
2022-08-17T12:40:26.680Z,93422.14
2022-08-17T12:41:44.732Z,93424.31
2022-08-17T12:43:18.546Z,93422.60
2022-08-17T12:44:31.197Z,93422.85
2022-08-17T12:45:39.627Z,93422.66
2022-08-17T12:46:50.274Z,93425.80
2022-08-17T12:48:09.530Z,93426.42
2022-08-17T12:49:20.040Z,93427.41
2022-08-17T12:50:28.941Z,93427.38
2022-08-17T12:51:34.286Z,93427.89
2022-08-17T12:52:40.476Z,93426.64
2022-08-17T12:53:54.136Z,93428.48
2022-08-17T12:54:59.887Z,93424.44
2022-08-17T12:56:10.861Z,93430.09
2022-08-17T12:57:17.830Z,93428.47
2022-08-17T12:58:29.896Z,93431.86
2022-08-17T12:59:33.491Z,93430.97
2022-08-17T13:00:47.714Z,93433.28
2022-08-17T13:01:51.482Z,93432.52
2022-08-17T13:02:58.403Z,93429.77
2022-08-17T13:04:01.551Z,93429.21
2022-08-17T13:05:17.983Z,93428.60
2022-08-17T13:06:33.396Z,93420.56
2022-08-17T13:07:46.730Z,93428.48
2022-08-17T13:08:50.331Z,93430.36
2022-08-17T13:09:53.506Z,93426.30
2022-08-17T13:11:09.592Z,93430.35
2022-08-17T13:12:12.676Z,93431.65
2022-08-17T13:13:25.454Z,93429.57
2022-08-17T13:14:28.996Z,93432.10
2022-08-17T13:15:44.334Z,93427.06
2022-08-17T13:16:51.650Z,93430.88
2022-08-17T13:17:58.572Z,93430.30
2022-08-17T13:19:39.933Z,93434.07
2022-08-17T13:20:53.762Z,93436.26
2022-08-17T13:22:02.243Z,93431.30
2022-08-17T13:23:12.476Z,93430.58
2022-08-17T13:24:29.698Z,93428.42
2022-08-17T13:25:42.064Z,93427.23
2022-08-17T13:26:45.029Z,93423.61
2022-08-17T13:27:52.487Z,93428.08
2022-08-17T13:28:55.867Z,93430.77
2022-08-17T13:30:03.255Z,93430.07
2022-08-17T13:31:28.338Z,93427.30
2022-08-17T13:32:42.993Z,93429.66
2022-08-17T13:33:47.494Z,93422.22
2022-08-17T13:35:14.952Z,93423.30
2022-08-17T13:36:32.261Z,93418.61
2022-08-17T13:37:37.429Z,93422.13
2022-08-17T13:38:51.327Z,93419.48
2022-08-17T13:39:57.302Z,93423.14
2022-08-17T13:41:00.688Z,93419.42
2022-08-17T13:42:32.611Z,93424.16
2022-08-17T13:43:50.755Z,93425.08
2022-08-17T13:44:56.385Z,93423.71
2022-08-17T13:46:31.443Z,93430.86
2022-08-17T13:47:37.428Z,93425.61
2022-08-17T13:48:40.783Z,93427.98
2022-08-17T13:49:48.828Z,93424.45
2022-08-17T13:50:55.388Z,93422.83
2022-08-17T13:52:01.006Z,93422.62
2022-08-17T13:53:24.190Z,93418.83
2022-08-17T13:54:29.622Z,93418.53
2022-08-17T13:55:32.755Z,93417.51
2022-08-17T13:56:50.235Z,93418.30
2022-08-17T13:58:03.921Z,93417.23
2022-08-17T13:59:16.837Z,93412.80
2022-08-17T14:00:40.522Z,93405.84
2022-08-17T14:01:52.785Z,93408.89
2022-08-17T14:02:58.690Z,93405.73
2022-08-17T14:04:17.632Z,93406.46
2022-08-17T14:05:20.660Z,93406.17
2022-08-17T14:06:53.128Z,93407.14
2022-08-17T14:07:56.223Z,93410.27
2022-08-17T14:08:59.431Z,93408.11
2022-08-17T14:10:16.317Z,93405.15
2022-08-17T14:11:20.185Z,93405.05
2022-08-17T14:12:26.806Z,93404.69
2022-08-17T14:13:29.892Z,93407.55
2022-08-17T14:14:33.199Z,93407.31
2022-08-17T14:15:54.830Z,93408.98
2022-08-17T14:16:59.457Z,93406.46
2022-08-17T14:18:02.678Z,93407.93
2022-08-17T14:19:06.147Z,93405.12
2022-08-17T14:20:12.285Z,93404.96
2022-08-17T14:21:15.454Z,93406.06
2022-08-17T14:22:23.904Z,93403.63
2022-08-17T14:23:27.198Z,93405.78
2022-08-17T14:24:44.026Z,93407.17
2022-08-17T14:25:48.171Z,93401.61
2022-08-17T14:26:54.792Z,93400.27
2022-08-17T14:27:58.369Z,93401.59